Terminal Aerodrome Forecast
Issued by NWS

Home | Current Version | Previous Version | Text Only | Print | Product List | Glossary On
Versions: 1 2 3 4 5 6 7 8 9 10 11 12 13
000
FTUS44 KTSA 012300
TAFFYV
TAF
KFYV 012338Z 0200/0224 18011KT P6SM SCT040
     FM020300 16006KT P6SM BKN250
     FM020900 18006KT 4SM BR OVC100
     FM021500 18010KT P6SM OVC015
     FM021800 18012KT P6SM BKN100 PROB30 0218/0224 4SM -TSRA
      BKN030CB=

USA.gov is the U.S. government's official web portal to all federal, state and local government web resources and services.